sensor_id;sensor_type;location;lat;lon;timestamp;temperature;humidity
14099;DHT22;7126;48.458;7.930;2022-08-05T00:01:00;26.70;99.10
14099;DHT22;7126;48.458;7.930;2022-08-05T00:03:26;26.60;99.50
14099;DHT22;7126;48.458;7.930;2022-08-05T00:05:52;26.60;99.60
14099;DHT22;7126;48.458;7.930;2022-08-05T00:08:18;26.50;99.60
14099;DHT22;7126;48.458;7.930;2022-08-05T00:10:44;26.50;99.90
14099;DHT22;7126;48.458;7.930;2022-08-05T00:13:09;26.40;99.90
14099;DHT22;7126;48.458;7.930;2022-08-05T00:15:35;26.40;99.90
14099;DHT22;7126;48.458;7.930;2022-08-05T00:18:00;26.40;99.90
14099;DHT22;7126;48.458;7.930;2022-08-05T00:20:26;26.30;99.90
14099;DHT22;7126;48.458;7.930;2022-08-05T00:22:52;26.30;99.90
14099;DHT22;7126;48.458;7.930;2022-08-05T00:25:17;26.20;99.90
14099;DHT22;7126;48.458;7.930;2022-08-05T00:27:43;26.10;99.90
14099;DHT22;7126;48.458;7.930;2022-08-05T00:30:09;26.10;99.90
14099;DHT22;7126;48.458;7.930;2022-08-05T00:32:34;26.10;99.90
14099;DHT22;7126;48.458;7.930;2022-08-05T00:35:00;26.10;99.90
14099;DHT22;7126;48.458;7.930;2022-08-05T00:37:26;26.10;99.90
14099;DHT22;7126;48.458;7.930;2022-08-05T00:39:51;26.00;99.90
14099;DHT22;7126;48.458;7.930;2022-08-05T00:42:32;26.00;99.90
14099;DHT22;7126;48.458;7.930;2022-08-05T00:44:57;26.00;99.90
14099;DHT22;7126;48.458;7.930;2022-08-05T00:47:23;26.00;99.90
14099;DHT22;7126;48.458;7.930;2022-08-05T00:49:49;26.00;99.90
14099;DHT22;7126;48.458;7.930;2022-08-05T00:52:14;25.90;99.90
14099;DHT22;7126;48.458;7.930;2022-08-05T00:54:40;25.80;99.90
14099;DHT22;7126;48.458;7.930;2022-08-05T00:57:05;25.70;99.90
14099;DHT22;7126;48.458;7.930;2022-08-05T00:59:31;25.60;99.90
14099;DHT22;7126;48.458;7.930;2022-08-05T01:01:57;25.60;99.90
14099;DHT22;7126;48.458;7.930;2022-08-05T01:04:22;25.60;99.90
14099;DHT22;7126;48.458;7.930;2022-08-05T01:06:48;25.50;99.90
14099;DHT22;7126;48.458;7.930;2022-08-05T01:09:13;25.40;99.90
14099;DHT22;7126;48.458;7.930;2022-08-05T01:11:39;25.30;99.90
14099;DHT22;7126;48.458;7.930;2022-08-05T01:14:30;25.30;99.90
14099;DHT22;7126;48.458;7.930;2022-08-05T01:17:06;25.30;99.90
14099;DHT22;7126;48.458;7.930;2022-08-05T01:22:29;25.30;99.90
14099;DHT22;7126;48.458;7.930;2022-08-05T01:30:15;25.10;99.90
14099;DHT22;7126;48.458;7.930;2022-08-05T01:32:44;25.10;99.90
14099;DHT22;7126;48.458;7.930;2022-08-05T01:35:17;25.10;99.90
14099;DHT22;7126;48.458;7.930;2022-08-05T01:37:46;25.10;99.90
14099;DHT22;7126;48.458;7.930;2022-08-05T01:40:14;25.10;99.90
14099;DHT22;7126;48.458;7.930;2022-08-05T01:42:43;25.20;99.90
14099;DHT22;7126;48.458;7.930;2022-08-05T01:45:10;25.30;99.90
14099;DHT22;7126;48.458;7.930;2022-08-05T01:47:39;25.20;99.90
14099;DHT22;7126;48.458;7.930;2022-08-05T01:50:08;25.20;99.90
14099;DHT22;7126;48.458;7.930;2022-08-05T01:52:36;25.30;99.90
14099;DHT22;7126;48.458;7.930;2022-08-05T01:55:06;25.30;99.90
14099;DHT22;7126;48.458;7.930;2022-08-05T01:57:39;25.30;99.90
14099;DHT22;7126;48.458;7.930;2022-08-05T02:00:07;25.20;99.90
14099;DHT22;7126;48.458;7.930;2022-08-05T02:02:40;25.20;99.90
14099;DHT22;7126;48.458;7.930;2022-08-05T02:05:11;25.10;99.90
14099;DHT22;7126;48.458;7.930;2022-08-05T02:07:38;25.00;99.90
14099;DHT22;7126;48.458;7.930;2022-08-05T02:10:04;25.00;99.90
14099;DHT22;7126;48.458;7.930;2022-08-05T02:12:54;25.10;99.90
14099;DHT22;7126;48.458;7.930;2022-08-05T02:15:25;25.00;99.90
14099;DHT22;7126;48.458;7.930;2022-08-05T02:17:57;24.90;99.90
14099;DHT22;7126;48.458;7.930;2022-08-05T02:20:26;24.90;99.90
14099;DHT22;7126;48.458;7.930;2022-08-05T02:22:58;24.80;99.90
14099;DHT22;7126;48.458;7.930;2022-08-05T02:25:27;24.80;99.90
14099;DHT22;7126;48.458;7.930;2022-08-05T02:27:55;24.70;99.90
14099;DHT22;7126;48.458;7.930;2022-08-05T02:30:23;24.70;99.90
14099;DHT22;7126;48.458;7.930;2022-08-05T02:32:52;24.70;99.90
14099;DHT22;7126;48.458;7.930;2022-08-05T02:35:20;24.80;99.90
14099;DHT22;7126;48.458;7.930;2022-08-05T02:37:48;24.80;99.90
14099;DHT22;7126;48.458;7.930;2022-08-05T02:40:16;24.80;99.90
14099;DHT22;7126;48.458;7.930;2022-08-05T02:42:43;24.80;99.90
14099;DHT22;7126;48.458;7.930;2022-08-05T02:45:10;24.70;99.90
14099;DHT22;7126;48.458;7.930;2022-08-05T02:47:37;24.80;99.90
14099;DHT22;7126;48.458;7.930;2022-08-05T02:50:05;24.70;99.90
14099;DHT22;7126;48.458;7.930;2022-08-05T02:52:32;24.80;99.90
14099;DHT22;7126;48.458;7.930;2022-08-05T02:54:59;24.80;99.90
14099;DHT22;7126;48.458;7.930;2022-08-05T02:57:26;24.80;99.90
14099;DHT22;7126;48.458;7.930;2022-08-05T02:59:52;24.70;99.90
14099;DHT22;7126;48.458;7.930;2022-08-05T03:02:27;24.60;99.90
14099;DHT22;7126;48.458;7.930;2022-08-05T03:04:54;24.60;99.90
14099;DHT22;7126;48.458;7.930;2022-08-05T03:07:22;24.60;99.90
14099;DHT22;7126;48.458;7.930;2022-08-05T03:09:48;24.70;99.90
14099;DHT22;7126;48.458;7.930;2022-08-05T03:12:34;24.80;99.90
14099;DHT22;7126;48.458;7.930;2022-08-05T03:15:00;24.80;99.90
14099;DHT22;7126;48.458;7.930;2022-08-05T03:17:26;24.80;99.90
14099;DHT22;7126;48.458;7.930;2022-08-05T03:19:52;24.90;99.90
14099;DHT22;7126;48.458;7.930;2022-08-05T03:22:17;25.00;99.90
14099;DHT22;7126;48.458;7.930;2022-08-05T03:24:44;25.10;99.90
14099;DHT22;7126;48.458;7.930;2022-08-05T03:27:10;25.10;99.90
14099;DHT22;7126;48.458;7.930;2022-08-05T03:29:36;25.10;99.90
14099;DHT22;7126;48.458;7.930;2022-08-05T03:32:03;25.10;99.90
14099;DHT22;7126;48.458;7.930;2022-08-05T03:34:30;25.10;99.90
14099;DHT22;7126;48.458;7.930;2022-08-05T03:36:56;25.10;99.90
14099;DHT22;7126;48.458;7.930;2022-08-05T03:39:22;25.10;99.90
14099;DHT22;7126;48.458;7.930;2022-08-05T03:41:47;25.00;99.90
14099;DHT22;7126;48.458;7.930;2022-08-05T03:44:13;24.90;99.90
14099;DHT22;7126;48.458;7.930;2022-08-05T03:46:39;24.80;99.90
14099;DHT22;7126;48.458;7.930;2022-08-05T03:49:04;24.80;99.90
14099;DHT22;7126;48.458;7.930;2022-08-05T03:52:02;24.70;99.90
14099;DHT22;7126;48.458;7.930;2022-08-05T03:54:34;24.60;99.90
14099;DHT22;7126;48.458;7.930;2022-08-05T03:57:02;24.50;99.90
14099;DHT22;7126;48.458;7.930;2022-08-05T03:59:36;24.40;99.90
14099;DHT22;7126;48.458;7.930;2022-08-05T04:02:05;24.40;99.90
14099;DHT22;7126;48.458;7.930;2022-08-05T04:04:33;24.40;99.90
14099;DHT22;7126;48.458;7.930;2022-08-05T04:06:59;24.40;99.90
14099;DHT22;7126;48.458;7.930;2022-08-05T04:09:27;24.30;99.90
14099;DHT22;7126;48.458;7.930;2022-08-05T04:11:54;24.30;99.90
14099;DHT22;7126;48.458;7.930;2022-08-05T04:14:20;24.40;99.90
14099;DHT22;7126;48.458;7.930;2022-08-05T04:16:46;24.40;99.90
14099;DHT22;7126;48.458;7.930;2022-08-05T04:19:12;24.50;99.90
14099;DHT22;7126;48.458;7.930;2022-08-05T04:21:39;24.60;99.90
14099;DHT22;7126;48.458;7.930;2022-08-05T04:24:05;24.60;99.90
14099;DHT22;7126;48.458;7.930;2022-08-05T04:26:31;24.70;99.90
14099;DHT22;7126;48.458;7.930;2022-08-05T04:28:56;24.60;99.90
14099;DHT22;7126;48.458;7.930;2022-08-05T04:31:22;24.70;99.90
14099;DHT22;7126;48.458;7.930;2022-08-05T04:33:48;24.80;99.90
14099;DHT22;7126;48.458;7.930;2022-08-05T04:36:14;24.90;99.90
14099;DHT22;7126;48.458;7.930;2022-08-05T04:38:41;24.90;99.90
14099;DHT22;7126;48.458;7.930;2022-08-05T04:41:07;24.90;99.90
14099;DHT22;7126;48.458;7.930;2022-08-05T04:43:33;24.90;99.90
14099;DHT22;7126;48.458;7.930;2022-08-05T04:45:58;24.90;99.90
14099;DHT22;7126;48.458;7.930;2022-08-05T04:48:24;24.90;99.90
14099;DHT22;7126;48.458;7.930;2022-08-05T04:50:49;24.90;99.90
14099;DHT22;7126;48.458;7.930;2022-08-05T04:53:17;24.90;99.90
14099;DHT22;7126;48.458;7.930;2022-08-05T04:55:43;25.00;99.90
14099;DHT22;7126;48.458;7.930;2022-08-05T04:58:11;25.00;99.90
14099;DHT22;7126;48.458;7.930;2022-08-05T05:00:37;25.10;99.90
14099;DHT22;7126;48.458;7.930;2022-08-05T05:03:05;25.10;99.90
14099;DHT22;7126;48.458;7.930;2022-08-05T05:05:31;25.10;99.90
14099;DHT22;7126;48.458;7.930;2022-08-05T05:08:07;25.20;99.90
14099;DHT22;7126;48.458;7.930;2022-08-05T05:10:41;25.20;99.90
14099;DHT22;7126;48.458;7.930;2022-08-05T05:13:12;25.30;99.90
14099;DHT22;7126;48.458;7.930;2022-08-05T05:15:38;25.30;99.90
14099;DHT22;7126;48.458;7.930;2022-08-05T05:18:04;25.30;99.90
14099;DHT22;7126;48.458;7.930;2022-08-05T05:20:30;25.30;99.90
14099;DHT22;7126;48.458;7.930;2022-08-05T05:22:57;25.30;99.90
14099;DHT22;7126;48.458;7.930;2022-08-05T05:25:23;25.30;99.90
14099;DHT22;7126;48.458;7.930;2022-08-05T05:27:48;25.30;99.90
14099;DHT22;7126;48.458;7.930;2022-08-05T05:30:17;25.40;99.90
14099;DHT22;7126;48.458;7.930;2022-08-05T05:32:42;25.30;99.90
14099;DHT22;7126;48.458;7.930;2022-08-05T05:35:08;25.30;99.90
14099;DHT22;7126;48.458;7.930;2022-08-05T05:37:54;25.30;99.90
14099;DHT22;7126;48.458;7.930;2022-08-05T05:40:23;25.30;99.90
14099;DHT22;7126;48.458;7.930;2022-08-05T05:42:49;25.20;99.90
14099;DHT22;7126;48.458;7.930;2022-08-05T05:45:15;25.30;99.90
14099;DHT22;7126;48.458;7.930;2022-08-05T05:47:41;25.30;99.90
14099;DHT22;7126;48.458;7.930;2022-08-05T05:50:08;25.30;99.90
14099;DHT22;7126;48.458;7.930;2022-08-05T05:52:34;25.30;99.90
14099;DHT22;7126;48.458;7.930;2022-08-05T05:55:08;25.40;99.90
14099;DHT22;7126;48.458;7.930;2022-08-05T05:57:35;25.40;99.90
14099;DHT22;7126;48.458;7.930;2022-08-05T06:00:02;25.40;99.90
14099;DHT22;7126;48.458;7.930;2022-08-05T06:02:28;25.40;99.90
14099;DHT22;7126;48.458;7.930;2022-08-05T06:04:53;25.40;99.90
14099;DHT22;7126;48.458;7.930;2022-08-05T06:07:19;25.40;99.90
14099;DHT22;7126;48.458;7.930;2022-08-05T06:09:44;25.30;99.90
14099;DHT22;7126;48.458;7.930;2022-08-05T06:12:10;25.40;99.90
14099;DHT22;7126;48.458;7.930;2022-08-05T06:14:35;25.40;99.90
14099;DHT22;7126;48.458;7.930;2022-08-05T06:17:01;25.40;99.90
14099;DHT22;7126;48.458;7.930;2022-08-05T06:19:27;25.40;99.90
14099;DHT22;7126;48.458;7.930;2022-08-05T06:21:53;25.40;99.90
14099;DHT22;7126;48.458;7.930;2022-08-05T06:24:19;25.50;99.90
14099;DHT22;7126;48.458;7.930;2022-08-05T06:26:44;25.40;99.90
14099;DHT22;7126;48.458;7.930;2022-08-05T06:29:10;25.50;99.90
14099;DHT22;7126;48.458;7.930;2022-08-05T06:31:36;25.50;99.90
14099;DHT22;7126;48.458;7.930;2022-08-05T06:34:02;25.60;99.90
14099;DHT22;7126;48.458;7.930;2022-08-05T06:36:28;25.60;99.90
14099;DHT22;7126;48.458;7.930;2022-08-05T06:38:54;25.70;99.90
14099;DHT22;7126;48.458;7.930;2022-08-05T06:41:20;25.70;99.90
14099;DHT22;7126;48.458;7.930;2022-08-05T06:43:46;25.80;99.90
14099;DHT22;7126;48.458;7.930;2022-08-05T06:46:12;25.90;99.90
14099;DHT22;7126;48.458;7.930;2022-08-05T06:48:37;25.90;99.90
14099;DHT22;7126;48.458;7.930;2022-08-05T06:51:03;26.00;99.90
14099;DHT22;7126;48.458;7.930;2022-08-05T06:53:29;26.00;99.90
14099;DHT22;7126;48.458;7.930;2022-08-05T06:55:59;26.00;99.90
14099;DHT22;7126;48.458;7.930;2022-08-05T06:58:25;26.00;99.90
14099;DHT22;7126;48.458;7.930;2022-08-05T07:00:52;25.90;99.90
14099;DHT22;7126;48.458;7.930;2022-08-05T07:03:17;25.90;99.90
14099;DHT22;7126;48.458;7.930;2022-08-05T07:05:43;25.90;99.90
14099;DHT22;7126;48.458;7.930;2022-08-05T07:08:09;25.90;99.90
14099;DHT22;7126;48.458;7.930;2022-08-05T07:10:35;26.00;99.90
14099;DHT22;7126;48.458;7.930;2022-08-05T07:13:00;26.10;99.90
14099;DHT22;7126;48.458;7.930;2022-08-05T07:15:45;26.10;99.90
14099;DHT22;7126;48.458;7.930;2022-08-05T07:18:29;26.30;99.90
14099;DHT22;7126;48.458;7.930;2022-08-05T07:20:54;26.30;99.90
14099;DHT22;7126;48.458;7.930;2022-08-05T07:23:20;26.40;99.90
14099;DHT22;7126;48.458;7.930;2022-08-05T07:25:46;26.50;99.90
14099;DHT22;7126;48.458;7.930;2022-08-05T07:28:11;26.60;99.90
14099;DHT22;7126;48.458;7.930;2022-08-05T07:30:37;26.70;99.90
14099;DHT22;7126;48.458;7.930;2022-08-05T07:33:04;26.70;99.90
14099;DHT22;7126;48.458;7.930;2022-08-05T07:35:30;26.70;99.90
14099;DHT22;7126;48.458;7.930;2022-08-05T07:37:56;26.70;99.90
14099;DHT22;7126;48.458;7.930;2022-08-05T07:40:22;26.70;99.90
14099;DHT22;7126;48.458;7.930;2022-08-05T07:42:48;26.80;99.90
14099;DHT22;7126;48.458;7.930;2022-08-05T07:45:13;26.80;99.90
14099;DHT22;7126;48.458;7.930;2022-08-05T07:47:40;26.80;99.90
14099;DHT22;7126;48.458;7.930;2022-08-05T07:50:06;26.90;99.90
14099;DHT22;7126;48.458;7.930;2022-08-05T07:52:40;27.00;99.90
14099;DHT22;7126;48.458;7.930;2022-08-05T07:55:06;27.10;99.90
14099;DHT22;7126;48.458;7.930;2022-08-05T07:57:32;27.20;99.90
14099;DHT22;7126;48.458;7.930;2022-08-05T07:59:57;27.20;99.90
14099;DHT22;7126;48.458;7.930;2022-08-05T08:02:27;27.30;99.90
14099;DHT22;7126;48.458;7.930;2022-08-05T08:04:54;27.30;99.90
14099;DHT22;7126;48.458;7.930;2022-08-05T08:07:20;27.40;99.90
14099;DHT22;7126;48.458;7.930;2022-08-05T08:09:47;27.50;99.90
14099;DHT22;7126;48.458;7.930;2022-08-05T08:12:14;27.50;99.90
14099;DHT22;7126;48.458;7.930;2022-08-05T08:14:40;27.70;99.90
14099;DHT22;7126;48.458;7.930;2022-08-05T08:17:07;27.70;99.90
14099;DHT22;7126;48.458;7.930;2022-08-05T08:19:35;27.80;99.90
14099;DHT22;7126;48.458;7.930;2022-08-05T08:22:01;27.90;99.90
14099;DHT22;7126;48.458;7.930;2022-08-05T08:24:27;27.90;99.90
14099;DHT22;7126;48.458;7.930;2022-08-05T08:26:53;28.00;99.90
14099;DHT22;7126;48.458;7.930;2022-08-05T08:29:19;28.00;99.90
14099;DHT22;7126;48.458;7.930;2022-08-05T08:31:44;28.10;99.90
14099;DHT22;7126;48.458;7.930;2022-08-05T08:34:10;28.20;99.90
14099;DHT22;7126;48.458;7.930;2022-08-05T08:36:36;28.30;99.90
14099;DHT22;7126;48.458;7.930;2022-08-05T08:39:01;28.40;99.90
14099;DHT22;7126;48.458;7.930;2022-08-05T08:41:29;28.50;99.90
14099;DHT22;7126;48.458;7.930;2022-08-05T08:43:56;28.60;99.90
14099;DHT22;7126;48.458;7.930;2022-08-05T08:46:23;28.60;99.90
14099;DHT22;7126;48.458;7.930;2022-08-05T08:48:53;28.60;99.90
14099;DHT22;7126;48.458;7.930;2022-08-05T08:51:19;28.70;99.90
14099;DHT22;7126;48.458;7.930;2022-08-05T08:53:46;28.80;99.90
14099;DHT22;7126;48.458;7.930;2022-08-05T08:56:13;28.90;99.90
14099;DHT22;7126;48.458;7.930;2022-08-05T08:58:40;29.00;99.90
14099;DHT22;7126;48.458;7.930;2022-08-05T09:01:06;29.00;99.90
14099;DHT22;7126;48.458;7.930;2022-08-05T09:03:33;29.10;99.90
14099;DHT22;7126;48.458;7.930;2022-08-05T09:05:59;29.20;99.90
14099;DHT22;7126;48.458;7.930;2022-08-05T09:08:25;29.20;99.90
14099;DHT22;7126;48.458;7.930;2022-08-05T09:10:50;29.30;99.90
14099;DHT22;7126;48.458;7.930;2022-08-05T09:13:16;29.40;99.90
14099;DHT22;7126;48.458;7.930;2022-08-05T09:15:44;29.50;99.90
14099;DHT22;7126;48.458;7.930;2022-08-05T09:18:10;29.60;99.90
14099;DHT22;7126;48.458;7.930;2022-08-05T09:20:36;29.70;99.90
14099;DHT22;7126;48.458;7.930;2022-08-05T09:23:12;29.80;99.90
14099;DHT22;7126;48.458;7.930;2022-08-05T09:25:39;29.80;99.90
14099;DHT22;7126;48.458;7.930;2022-08-05T09:28:15;29.90;99.90
14099;DHT22;7126;48.458;7.930;2022-08-05T09:30:52;30.00;99.90
14099;DHT22;7126;48.458;7.930;2022-08-05T09:33:20;30.00;99.90
14099;DHT22;7126;48.458;7.930;2022-08-05T09:35:56;30.10;99.90
14099;DHT22;7126;48.458;7.930;2022-08-05T09:38:23;30.10;99.90
14099;DHT22;7126;48.458;7.930;2022-08-05T09:40:48;30.20;99.90
14099;DHT22;7126;48.458;7.930;2022-08-05T09:45:53;30.40;99.90
14099;DHT22;7126;48.458;7.930;2022-08-05T09:48:23;30.30;99.90
14099;DHT22;7126;48.458;7.930;2022-08-05T09:50:54;30.30;99.90
14099;DHT22;7126;48.458;7.930;2022-08-05T09:53:21;30.40;99.90
14099;DHT22;7126;48.458;7.930;2022-08-05T09:55:50;30.50;99.90
14099;DHT22;7126;48.458;7.930;2022-08-05T09:58:16;30.60;99.90
14099;DHT22;7126;48.458;7.930;2022-08-05T10:00:54;30.70;99.90
14099;DHT22;7126;48.458;7.930;2022-08-05T10:03:19;30.80;99.90
14099;DHT22;7126;48.458;7.930;2022-08-05T10:05:45;30.90;99.90
14099;DHT22;7126;48.458;7.930;2022-08-05T10:08:11;31.10;99.90
14099;DHT22;7126;48.458;7.930;2022-08-05T10:13:08;31.30;99.90
14099;DHT22;7126;48.458;7.930;2022-08-05T10:15:43;31.30;99.90
14099;DHT22;7126;48.458;7.930;2022-08-05T10:18:17;31.30;99.90
14099;DHT22;7126;48.458;7.930;2022-08-05T10:21:04;31.30;99.90
14099;DHT22;7126;48.458;7.930;2022-08-05T10:23:32;31.20;99.90
14099;DHT22;7126;48.458;7.930;2022-08-05T10:26:00;31.20;99.90
14099;DHT22;7126;48.458;7.930;2022-08-05T10:28:27;31.20;99.90
14099;DHT22;7126;48.458;7.930;2022-08-05T10:30:54;31.20;99.90
14099;DHT22;7126;48.458;7.930;2022-08-05T10:33:22;31.20;99.90
14099;DHT22;7126;48.458;7.930;2022-08-05T10:35:49;31.30;99.90
14099;DHT22;7126;48.458;7.930;2022-08-05T10:38:16;31.20;99.90
14099;DHT22;7126;48.458;7.930;2022-08-05T10:40:45;31.30;99.90
14099;DHT22;7126;48.458;7.930;2022-08-05T10:45:56;31.60;99.90
14099;DHT22;7126;48.458;7.930;2022-08-05T10:48:36;31.70;99.90
14099;DHT22;7126;48.458;7.930;2022-08-05T10:51:11;31.90;99.70
14099;DHT22;7126;48.458;7.930;2022-08-05T10:56:06;32.10;99.30
14099;DHT22;7126;48.458;7.930;2022-08-05T10:58:33;32.20;99.60
14099;DHT22;7126;48.458;7.930;2022-08-05T11:01:03;32.40;99.70
14099;DHT22;7126;48.458;7.930;2022-08-05T11:03:29;32.50;98.80
14099;DHT22;7126;48.458;7.930;2022-08-05T11:06:24;32.60;99.70
14099;DHT22;7126;48.458;7.930;2022-08-05T11:09:20;32.80;98.20
14099;DHT22;7126;48.458;7.930;2022-08-05T11:11:48;32.90;99.10
14099;DHT22;7126;48.458;7.930;2022-08-05T11:19:54;33.10;98.00
14099;DHT22;7126;48.458;7.930;2022-08-05T11:22:45;33.10;98.70
14099;DHT22;7126;48.458;7.930;2022-08-05T11:25:58;33.10;98.20
14099;DHT22;7126;48.458;7.930;2022-08-05T11:33:32;33.40;96.30
14099;DHT22;7126;48.458;7.930;2022-08-05T11:36:00;33.50;95.80
14099;DHT22;7126;48.458;7.930;2022-08-05T11:41:20;33.50;95.90
14099;DHT22;7126;48.458;7.930;2022-08-05T11:43:58;33.50;95.90
14099;DHT22;7126;48.458;7.930;2022-08-05T11:46:50;33.50;96.20
14099;DHT22;7126;48.458;7.930;2022-08-05T11:49:20;33.60;95.30
14099;DHT22;7126;48.458;7.930;2022-08-05T11:51:49;33.60;96.60
14099;DHT22;7126;48.458;7.930;2022-08-05T11:54:25;33.50;95.80
14099;DHT22;7126;48.458;7.930;2022-08-05T11:56:53;33.50;95.00
14099;DHT22;7126;48.458;7.930;2022-08-05T11:59:24;33.60;96.10
14099;DHT22;7126;48.458;7.930;2022-08-05T12:02:01;33.70;95.90
14099;DHT22;7126;48.458;7.930;2022-08-05T12:04:36;33.90;95.60
14099;DHT22;7126;48.458;7.930;2022-08-05T12:07:02;34.00;95.40
14099;DHT22;7126;48.458;7.930;2022-08-05T12:09:28;34.20;94.60
14099;DHT22;7126;48.458;7.930;2022-08-05T12:12:00;34.30;95.10
14099;DHT22;7126;48.458;7.930;2022-08-05T12:14:35;34.50;94.90
14099;DHT22;7126;48.458;7.930;2022-08-05T12:17:10;34.50;94.00
14099;DHT22;7126;48.458;7.930;2022-08-05T12:19:50;34.60;95.20
14099;DHT22;7126;48.458;7.930;2022-08-05T12:22:20;34.70;94.40
14099;DHT22;7126;48.458;7.930;2022-08-05T12:24:48;34.80;94.30
14099;DHT22;7126;48.458;7.930;2022-08-05T12:27:25;34.80;93.00
14099;DHT22;7126;48.458;7.930;2022-08-05T12:30:03;34.90;92.00
14099;DHT22;7126;48.458;7.930;2022-08-05T12:32:31;35.00;92.20
14099;DHT22;7126;48.458;7.930;2022-08-05T12:34:57;35.20;93.20
14099;DHT22;7126;48.458;7.930;2022-08-05T12:37:23;35.30;92.40
14099;DHT22;7126;48.458;7.930;2022-08-05T12:39:50;35.30;92.00
14099;DHT22;7126;48.458;7.930;2022-08-05T12:42:18;35.20;92.00
14099;DHT22;7126;48.458;7.930;2022-08-05T12:44:44;35.10;93.90
14099;DHT22;7126;48.458;7.930;2022-08-05T12:47:11;35.20;93.00
14099;DHT22;7126;48.458;7.930;2022-08-05T12:49:45;35.10;93.80
14099;DHT22;7126;48.458;7.930;2022-08-05T12:52:18;34.90;93.10
14099;DHT22;7126;48.458;7.930;2022-08-05T12:54:45;34.60;93.30
14099;DHT22;7126;48.458;7.930;2022-08-05T12:57:12;34.30;93.30
14099;DHT22;7126;48.458;7.930;2022-08-05T13:02:12;34.00;93.80
14099;DHT22;7126;48.458;7.930;2022-08-05T13:04:41;34.00;93.30
14099;DHT22;7126;48.458;7.930;2022-08-05T13:07:10;34.10;94.10
14099;DHT22;7126;48.458;7.930;2022-08-05T13:09:42;34.30;93.90
14099;DHT22;7126;48.458;7.930;2022-08-05T13:12:10;34.50;93.20
14099;DHT22;7126;48.458;7.930;2022-08-05T13:14:39;34.60;93.60
14099;DHT22;7126;48.458;7.930;2022-08-05T13:17:30;34.80;91.80
14099;DHT22;7126;48.458;7.930;2022-08-05T13:22:26;34.90;93.00
14099;DHT22;7126;48.458;7.930;2022-08-05T13:24:52;35.00;92.80
14099;DHT22;7126;48.458;7.930;2022-08-05T13:29:53;35.10;92.70
14099;DHT22;7126;48.458;7.930;2022-08-05T13:32:19;35.00;92.80
14099;DHT22;7126;48.458;7.930;2022-08-05T13:34:46;34.80;93.00
14099;DHT22;7126;48.458;7.930;2022-08-05T13:37:12;34.70;92.80
14099;DHT22;7126;48.458;7.930;2022-08-05T13:39:37;34.60;93.40
14099;DHT22;7126;48.458;7.930;2022-08-05T13:42:03;34.40;93.10
14099;DHT22;7126;48.458;7.930;2022-08-05T13:44:29;34.40;93.20
14099;DHT22;7126;48.458;7.930;2022-08-05T13:46:54;34.30;93.00
14099;DHT22;7126;48.458;7.930;2022-08-05T13:49:20;34.20;93.70
14099;DHT22;7126;48.458;7.930;2022-08-05T13:51:45;34.00;94.30
14099;DHT22;7126;48.458;7.930;2022-08-05T13:54:11;33.80;94.60
14099;DHT22;7126;48.458;7.930;2022-08-05T13:56:37;33.60;94.80
14099;DHT22;7126;48.458;7.930;2022-08-05T13:59:02;33.60;95.00
14099;DHT22;7126;48.458;7.930;2022-08-05T14:01:28;33.50;94.90
14099;DHT22;7126;48.458;7.930;2022-08-05T14:03:54;33.40;94.90
14099;DHT22;7126;48.458;7.930;2022-08-05T14:06:38;33.20;95.00
14099;DHT22;7126;48.458;7.930;2022-08-05T14:09:03;33.10;95.40
14099;DHT22;7126;48.458;7.930;2022-08-05T14:11:29;32.90;95.50
14099;DHT22;7126;48.458;7.930;2022-08-05T14:13:55;32.60;95.80
14099;DHT22;7126;48.458;7.930;2022-08-05T14:16:21;32.40;96.10
14099;DHT22;7126;48.458;7.930;2022-08-05T14:18:46;32.20;96.40
14099;DHT22;7126;48.458;7.930;2022-08-05T14:21:12;32.00;96.90
14099;DHT22;7126;48.458;7.930;2022-08-05T14:23:38;31.90;97.40
14099;DHT22;7126;48.458;7.930;2022-08-05T14:26:03;31.70;97.30
14099;DHT22;7126;48.458;7.930;2022-08-05T14:28:29;31.70;97.90
14099;DHT22;7126;48.458;7.930;2022-08-05T14:30:59;31.60;98.30
14099;DHT22;7126;48.458;7.930;2022-08-05T14:33:24;31.50;98.70
14099;DHT22;7126;48.458;7.930;2022-08-05T14:35:50;31.60;98.80
14099;DHT22;7126;48.458;7.930;2022-08-05T14:38:16;31.60;98.70
14099;DHT22;7126;48.458;7.930;2022-08-05T14:40:41;31.40;98.90
14099;DHT22;7126;48.458;7.930;2022-08-05T14:43:07;31.30;99.50
14099;DHT22;7126;48.458;7.930;2022-08-05T14:45:32;31.30;99.70
14099;DHT22;7126;48.458;7.930;2022-08-05T14:47:58;31.20;99.90
14099;DHT22;7126;48.458;7.930;2022-08-05T14:50:24;31.10;99.90
14099;DHT22;7126;48.458;7.930;2022-08-05T14:52:49;31.00;99.90
14099;DHT22;7126;48.458;7.930;2022-08-05T14:55:15;31.00;99.90
14099;DHT22;7126;48.458;7.930;2022-08-05T14:57:40;30.90;99.90
14099;DHT22;7126;48.458;7.930;2022-08-05T15:00:06;30.90;99.90
14099;DHT22;7126;48.458;7.930;2022-08-05T15:02:32;30.90;99.50
14099;DHT22;7126;48.458;7.930;2022-08-05T15:04:58;31.00;99.30
14099;DHT22;7126;48.458;7.930;2022-08-05T15:07:23;31.10;98.90
14099;DHT22;7126;48.458;7.930;2022-08-05T15:09:49;31.20;99.20
14099;DHT22;7126;48.458;7.930;2022-08-05T15:12:15;31.20;99.60
14099;DHT22;7126;48.458;7.930;2022-08-05T15:14:40;31.10;98.90
14099;DHT22;7126;48.458;7.930;2022-08-05T15:17:06;30.90;99.00
14099;DHT22;7126;48.458;7.930;2022-08-05T15:19:33;30.80;99.40
14099;DHT22;7126;48.458;7.930;2022-08-05T15:21:58;30.70;99.90
14099;DHT22;7126;48.458;7.930;2022-08-05T15:24:25;30.60;99.90
14099;DHT22;7126;48.458;7.930;2022-08-05T15:26:50;30.50;99.90
14099;DHT22;7126;48.458;7.930;2022-08-05T15:29:16;30.40;99.90
14099;DHT22;7126;48.458;7.930;2022-08-05T15:31:42;30.40;99.90
14099;DHT22;7126;48.458;7.930;2022-08-05T15:34:07;30.40;99.90
14099;DHT22;7126;48.458;7.930;2022-08-05T15:36:33;30.30;99.90
14099;DHT22;7126;48.458;7.930;2022-08-05T15:38:58;30.30;99.90
14099;DHT22;7126;48.458;7.930;2022-08-05T15:41:24;30.30;99.90
14099;DHT22;7126;48.458;7.930;2022-08-05T15:43:51;30.30;99.90
14099;DHT22;7126;48.458;7.930;2022-08-05T15:46:18;30.20;99.90
14099;DHT22;7126;48.458;7.930;2022-08-05T15:48:44;30.10;99.90
14099;DHT22;7126;48.458;7.930;2022-08-05T15:51:10;30.00;99.90
14099;DHT22;7126;48.458;7.930;2022-08-05T15:53:36;30.00;99.90
14099;DHT22;7126;48.458;7.930;2022-08-05T15:56:03;30.00;99.90
14099;DHT22;7126;48.458;7.930;2022-08-05T15:58:29;30.00;99.90
14099;DHT22;7126;48.458;7.930;2022-08-05T16:00:54;30.10;99.90
14099;DHT22;7126;48.458;7.930;2022-08-05T16:03:20;30.10;99.90
14099;DHT22;7126;48.458;7.930;2022-08-05T16:05:46;30.20;99.90
14099;DHT22;7126;48.458;7.930;2022-08-05T16:08:11;30.20;99.90
14099;DHT22;7126;48.458;7.930;2022-08-05T16:10:37;30.20;99.90
14099;DHT22;7126;48.458;7.930;2022-08-05T16:13:03;30.10;99.90
14099;DHT22;7126;48.458;7.930;2022-08-05T16:15:28;30.00;99.90
14099;DHT22;7126;48.458;7.930;2022-08-05T16:17:54;29.80;99.90
14099;DHT22;7126;48.458;7.930;2022-08-05T16:20:20;29.70;99.90
14099;DHT22;7126;48.458;7.930;2022-08-05T16:22:45;29.60;99.90
14099;DHT22;7126;48.458;7.930;2022-08-05T16:25:11;29.60;99.90
14099;DHT22;7126;48.458;7.930;2022-08-05T16:27:38;29.50;99.90
14099;DHT22;7126;48.458;7.930;2022-08-05T16:30:04;29.50;99.90